Time;durP1;ratioP1;P1;durP2;ratioP2;P2;SDS_P1;SDS_P2;PMS_P1;PMS_P2;Temp;Humidity;BMP_temperature;BMP_pressure;BME280_temperature;BME280_humidity;BME280_pressure;Samples;Min_cycle;Max_cycle;Signal;HPM_P1;HPM_P2
2021/12/22 00:01:40;;;;;;;;;85.80;76.20;19.30;99.90;;;;;;5077747;28;8752;-65
2021/12/22 00:04:07;;;;;;;;;88.00;76.00;19.10;99.90;;;;;;5078403;28;8802;-65
2021/12/22 00:06:34;;;;;;;;;93.60;81.80;19.20;99.90;;;;;;5077523;28;8741;-64
2021/12/22 00:09:04;;;;;;;;;87.40;79.20;19.20;99.90;;;;;;5059940;28;8711;-64
2021/12/22 00:11:30;;;;;;;;;85.20;75.40;19.20;99.90;;;;;;5077503;28;8752;-64
2021/12/22 00:13:57;;;;;;;;;97.40;81.00;19.30;99.90;;;;;;5077730;28;9995;-65
2021/12/22 00:16:24;;;;;;;;;110.80;93.00;19.20;99.90;;;;;;5077576;28;8767;-65
2021/12/22 00:18:50;;;;;;;;;90.80;84.40;19.20;99.90;;;;;;5077860;28;8768;-65
2021/12/22 00:21:17;;;;;;;;;100.80;88.20;19.20;99.90;;;;;;5059387;28;9428;-64
2021/12/22 00:23:46;;;;;;;;;121.20;109.40;19.20;99.90;;;;;;5077383;28;8764;-65
2021/12/22 00:26:13;;;;;;;;;129.80;109.00;19.20;99.90;;;;;;5059318;28;8765;-65
2021/12/22 00:28:41;;;;;;;;;117.20;99.40;19.20;99.90;;;;;;5077667;28;8753;-65
2021/12/22 00:31:13;;;;;;;;;120.00;97.60;19.20;99.90;;;;;;5077704;28;8753;-65
2021/12/22 00:33:47;;;;;;;;;101.40;86.20;19.30;99.90;;;;;;5077596;28;8819;-65
2021/12/22 00:36:15;;;;;;;;;103.60;89.00;19.40;99.90;;;;;;5060780;28;8859;-65
2021/12/22 00:38:42;;;;;;;;;102.20;90.40;19.40;99.90;;;;;;5077125;28;8787;-65
2021/12/22 00:41:08;;;;;;;;;92.80;82.80;19.40;99.90;;;;;;5077643;28;8761;-64
2021/12/22 00:43:35;;;;;;;;;98.20;84.00;19.50;99.90;;;;;;5077514;28;8749;-65
2021/12/22 00:46:02;;;;;;;;;123.00;108.00;19.60;99.90;;;;;;5078015;28;8773;-65
2021/12/22 00:48:29;;;;;;;;;112.60;95.60;19.60;99.90;;;;;;5076922;28;8788;-64
2021/12/22 00:50:56;;;;;;;;;108.40;91.40;19.60;99.90;;;;;;5077303;28;8760;-64
2021/12/22 00:53:22;;;;;;;;;120.00;100.20;19.70;99.90;;;;;;5076855;28;9901;-65
2021/12/22 00:55:49;;;;;;;;;110.80;94.40;19.60;99.90;;;;;;5076808;28;8837;-64
2021/12/22 00:58:16;;;;;;;;;129.20;111.20;19.50;99.90;;;;;;5077591;28;8850;-65
2021/12/22 01:00:46;;;;;;;;;136.00;120.00;19.50;99.90;;;;;;5077116;28;8977;-65
2021/12/22 01:03:14;;;;;;;;;150.00;132.25;19.70;99.90;;;;;;5076947;28;8796;-65
2021/12/22 01:05:41;;;;;;;;;130.50;115.00;19.70;99.90;;;;;;5076876;28;8768;-65
2021/12/22 01:08:08;;;;;;;;;143.60;123.40;19.80;99.90;;;;;;5076787;28;8910;-64
2021/12/22 01:10:35;;;;;;;;;122.60;110.60;19.80;99.90;;;;;;5076511;28;8771;-65
2021/12/22 01:13:03;;;;;;;;;137.00;115.80;19.90;99.90;;;;;;5077383;28;9418;-65
2021/12/22 01:15:30;;;;;;;;;131.20;113.20;20.00;99.90;;;;;;5076564;28;8879;-65
2021/12/22 01:18:11;;;;;;;;;114.00;98.40;20.10;99.90;;;;;;5076551;28;8796;-65
2021/12/22 01:20:56;;;;;;;;;125.20;121.20;20.20;99.90;;;;;;5060645;28;8792;-65
2021/12/22 01:23:23;;;;;;;;;120.40;100.60;20.20;99.90;;;;;;5076417;28;8787;-65
2021/12/22 01:25:51;;;;;;;;;118.00;98.80;20.30;99.90;;;;;;5058661;28;9421;-65
2021/12/22 01:28:18;;;;;;;;;130.00;112.00;20.40;99.90;;;;;;5075855;28;8920;-65
2021/12/22 01:30:49;;;;;;;;;130.00;107.40;20.30;99.90;;;;;;5076440;28;8799;-65
2021/12/22 01:33:16;;;;;;;;;84.20;81.20;20.50;99.90;;;;;;5059486;28;8761;-65
2021/12/22 01:35:43;;;;;;;;;113.40;97.20;20.60;99.90;;;;;;5076463;28;8741;-65
2021/12/22 01:38:10;;;;;;;;;98.40;89.20;20.70;99.90;;;;;;5076563;28;8768;-65
2021/12/22 01:40:41;;;;;;;;;108.60;93.60;20.70;99.90;;;;;;5076036;28;8737;-64
2021/12/22 01:43:09;;;;;;;;;98.20;85.40;20.80;99.90;;;;;;5043466;28;8790;-65
2021/12/22 01:46:32;;;;;;;;;84.60;74.00;20.90;99.90;;;;;;5057871;28;8772;-65
2021/12/22 01:51:55;;;;;;;;;84.80;75.40;21.10;99.90;;;;;;5056578;28;8761;-65
2021/12/22 01:54:35;;;;;;;;;99.60;83.60;21.00;99.70;;;;;;5056512;28;8766;-65
2021/12/22 01:57:09;;;;;;;;;90.00;84.80;21.10;99.90;;;;;;5056576;28;8781;-65
2021/12/22 01:59:37;;;;;;;;;94.60;85.00;21.10;99.90;;;;;;5056159;28;8794;-65
2021/12/22 02:02:06;;;;;;;;;88.60;79.80;21.30;99.70;;;;;;5057708;28;8738;-65
2021/12/22 02:04:33;;;;;;;;;86.60;80.20;21.50;99.70;;;;;;5058783;28;9072;-65
2021/12/22 02:06:59;;;;;;;;;95.40;82.20;21.60;99.50;;;;;;5059441;28;8768;-65
2021/12/22 02:12:12;;;;;;;;;86.00;74.20;21.80;99.20;;;;;;5061093;28;8782;-65
2021/12/22 02:14:40;;;;;;;;;80.20;71.00;22.00;99.10;;;;;;5059971;28;8859;-65
2021/12/22 02:17:09;;;;;;;;;84.00;72.60;22.00;99.10;;;;;;5043609;28;8815;-65
2021/12/22 02:19:38;;;;;;;;;82.80;74.80;22.10;98.80;;;;;;5039713;28;8756;-65
2021/12/22 02:22:09;;;;;;;;;79.80;76.60;22.20;98.60;;;;;;5040943;28;8737;-65
2021/12/22 02:24:36;;;;;;;;;84.40;74.80;22.10;98.80;;;;;;5040045;28;8878;-65
2021/12/22 02:27:14;;;;;;;;;89.60;76.40;22.20;98.70;;;;;;5040280;28;8756;-65
2021/12/22 02:29:46;;;;;;;;;79.00;71.00;22.20;98.60;;;;;;5039678;28;8772;-65
2021/12/22 02:32:39;;;;;;;;;79.20;67.40;22.40;98.70;;;;;;5055113;28;9900;-65
2021/12/22 02:35:03;;;;;;;;;77.00;66.40;22.40;98.40;;;;;;5059880;28;8780;-65
2021/12/22 02:37:31;;;;;;;;;86.00;73.00;22.40;98.20;;;;;;5059058;28;9499;-66
2021/12/22 02:40:11;;;;;;;;;77.20;67.20;22.60;98.00;;;;;;5060066;28;8764;-65
2021/12/22 02:42:37;;;;;;;;;74.60;62.00;22.60;97.80;;;;;;5059790;28;9493;-65
2021/12/22 02:45:15;;;;;;;;;76.20;64.60;22.80;97.40;;;;;;5058498;28;9426;-65
2021/12/22 02:47:42;;;;;;;;;74.40;60.60;22.70;97.60;;;;;;5040308;28;8786;-65
2021/12/22 02:50:10;;;;;;;;;77.00;65.40;22.70;97.50;;;;;;5041869;28;9399;-65
2021/12/22 02:52:56;;;;;;;;;75.20;60.60;22.80;96.90;;;;;;5059226;28;8810;-65
2021/12/22 02:55:29;;;;;;;;;75.60;61.20;22.80;96.90;;;;;;5044150;28;8770;-66
2021/12/22 02:58:00;;;;;;;;;84.40;71.20;22.90;97.30;;;;;;5059311;28;8758;-65
2021/12/22 03:00:45;;;;;;;;;81.60;65.20;23.00;97.30;;;;;;5060527;28;8751;-66
2021/12/22 03:03:47;;;;;;;;;82.00;65.00;23.10;97.10;;;;;;5061219;28;8808;-65
2021/12/22 03:06:20;;;;;;;;;76.40;63.40;23.20;96.90;;;;;;5079129;28;8894;-65
2021/12/22 03:08:47;;;;;;;;;86.60;67.40;23.20;96.50;;;;;;5078243;28;9500;-65
2021/12/22 03:11:13;;;;;;;;;83.80;67.60;23.20;96.80;;;;;;5078580;28;8815;-65
2021/12/22 03:13:40;;;;;;;;;84.40;66.60;23.00;97.40;;;;;;5078500;28;8729;-65
2021/12/22 03:16:07;;;;;;;;;85.40;73.80;22.90;97.20;;;;;;5078305;28;8757;-65
2021/12/22 03:18:37;;;;;;;;;80.40;64.40;22.70;97.30;;;;;;5078944;28;8768;-65
2021/12/22 03:21:18;;;;;;;;;79.40;59.20;22.70;97.30;;;;;;5079642;28;8772;-65
2021/12/22 03:23:45;;;;;;;;;81.20;69.60;23.10;96.80;;;;;;5079163;28;8810;-65
2021/12/22 03:26:14;;;;;;;;;82.20;68.20;23.40;96.30;;;;;;5079123;28;8768;-65
2021/12/22 03:28:41;;;;;;;;;78.60;62.40;23.60;96.20;;;;;;5061972;28;8744;-66
2021/12/22 03:31:07;;;;;;;;;79.80;63.80;23.80;96.20;;;;;;5079633;28;8781;-65
2021/12/22 03:33:34;;;;;;;;;79.00;64.80;23.90;95.30;;;;;;5078430;28;8799;-66
2021/12/22 03:36:01;;;;;;;;;76.40;64.60;24.10;95.00;;;;;;5078440;28;8756;-65
2021/12/22 03:38:30;;;;;;;;;80.00;65.20;24.20;95.00;;;;;;5077166;28;8814;-66
2021/12/22 03:40:57;;;;;;;;;74.40;59.40;24.20;94.50;;;;;;5078428;28;8752;-65
2021/12/22 03:43:24;;;;;;;;;79.40;62.00;24.00;95.20;;;;;;5077670;28;8755;-65
2021/12/22 03:45:50;;;;;;;;;77.40;60.60;24.20;94.80;;;;;;5078371;28;8781;-65
2021/12/22 03:48:18;;;;;;;;;79.00;61.33;24.30;94.40;;;;;;5077828;28;8780;-65
2021/12/22 03:50:45;;;;;;;;;75.25;59.00;24.40;94.80;;;;;;5078331;28;8756;-65
2021/12/22 03:53:12;;;;;;;;;75.60;57.80;24.40;94.30;;;;;;5077840;28;8772;-66
2021/12/22 03:55:39;;;;;;;;;80.60;62.40;24.50;94.40;;;;;;5077655;28;8749;-65
2021/12/22 03:58:06;;;;;;;;;78.80;62.60;24.60;94.40;;;;;;5078902;28;8739;-65
2021/12/22 04:00:37;;;;;;;;;78.00;61.60;24.60;94.20;;;;;;5059683;28;8879;-65
2021/12/22 04:03:04;;;;;;;;;75.60;58.80;24.70;93.90;;;;;;5077895;28;8819;-65
2021/12/22 04:05:31;;;;;;;;;74.40;56.00;24.80;93.80;;;;;;5077770;28;8861;-66
2021/12/22 04:07:58;;;;;;;;;67.40;53.60;24.50;94.10;;;;;;5078015;28;8753;-66
2021/12/22 04:10:25;;;;;;;;;68.20;52.40;24.60;93.50;;;;;;5077619;28;9063;-67
2021/12/22 04:12:53;;;;;;;;;71.00;53.80;24.80;93.20;;;;;;5078294;28;8741;-65
2021/12/22 04:15:20;;;;;;;;;64.00;49.00;25.00;92.90;;;;;;5077343;28;8753;-66
2021/12/22 04:17:47;;;;;;;;;71.80;55.00;24.70;92.40;;;;;;5077883;28;8819;-65
2021/12/22 04:20:14;;;;;;;;;72.20;55.20;24.50;93.20;;;;;;5077673;28;9066;-65
2021/12/22 04:22:41;;;;;;;;;71.40;54.40;24.80;92.90;;;;;;5077312;28;8740;-66
2021/12/22 04:25:09;;;;;;;;;69.80;54.60;25.20;92.50;;;;;;5077547;28;8808;-66
2021/12/22 04:27:36;;;;;;;;;73.75;55.50;25.40;91.70;;;;;;5059655;28;8810;-66
2021/12/22 04:30:04;;;;;;;;;67.00;52.00;25.50;92.00;;;;;;5060233;28;8744;-66
2021/12/22 04:32:31;;;;;;;;;71.80;57.60;25.60;92.00;;;;;;5077343;28;8745;-66
2021/12/22 04:34:58;;;;;;;;;70.00;54.00;25.50;92.20;;;;;;5076364;28;8744;-66
2021/12/22 04:37:25;;;;;;;;;70.20;55.40;25.70;92.20;;;;;;5077234;28;8713;-67
2021/12/22 04:39:51;;;;;;;;;67.20;53.00;25.90;91.90;;;;;;5078484;28;8736;-66
2021/12/22 04:42:19;;;;;;;;;70.20;54.80;25.90;91.60;;;;;;5077115;28;8847;-66
2021/12/22 04:44:46;;;;;;;;;73.00;57.80;26.00;91.60;;;;;;5077353;28;8765;-66
2021/12/22 04:47:13;;;;;;;;;70.80;54.00;25.80;91.40;;;;;;5077106;28;8764;-65
2021/12/22 04:49:40;;;;;;;;;72.25;55.00;25.70;91.50;;;;;;5076752;28;8756;-66
2021/12/22 04:52:09;;;;;;;;;73.20;60.00;25.80;91.50;;;;;;5078049;28;8709;-65
2021/12/22 04:54:48;;;;;;;;;70.25;54.50;25.90;91.80;;;;;;5059605;28;8806;-65
2021/12/22 04:57:15;;;;;;;;;69.60;53.20;26.00;91.70;;;;;;5077094;28;8748;-66
2021/12/22 04:59:41;;;;;;;;;69.75;52.50;26.10;91.30;;;;;;5076973;28;8737;-66
2021/12/22 05:02:09;;;;;;;;;66.80;51.60;26.30;90.70;;;;;;5043742;28;8787;-66
2021/12/22 05:04:37;;;;;;;;;73.40;56.20;26.50;90.60;;;;;;5056604;28;8743;-66
2021/12/22 05:07:03;;;;;;;;;67.80;52.60;26.30;90.30;;;;;;5057236;28;8804;-66
2021/12/22 05:09:30;;;;;;;;;67.00;53.60;26.20;91.10;;;;;;5021982;28;8735;-66
2021/12/22 05:11:57;;;;;;;;;67.60;53.40;26.30;91.40;;;;;;5056603;28;8715;-66
2021/12/22 05:14:23;;;;;;;;;67.50;53.25;26.50;90.90;;;;;;5056480;28;8735;-66
2021/12/22 05:16:53;;;;;;;;;72.00;54.80;26.50;90.50;;;;;;5069583;28;8756;-66
2021/12/22 05:19:19;;;;;;;;;69.00;55.00;26.50;90.60;;;;;;5059486;28;8761;-66
2021/12/22 05:21:46;;;;;;;;;68.25;52.50;26.60;90.20;;;;;;5076680;28;9499;-66
2021/12/22 05:24:13;;;;;;;;;65.50;51.50;26.80;90.10;;;;;;5058761;28;8903;-66
2021/12/22 05:26:39;;;;;;;;;64.50;47.75;27.00;89.20;;;;;;5076469;28;8769;-66
2021/12/22 05:29:06;;;;;;;;;59.75;47.75;27.10;87.30;;;;;;5076825;28;8749;-66
2021/12/22 05:31:33;;;;;;;;;60.50;46.25;27.20;86.50;;;;;;5076156;28;8764;-67
2021/12/22 05:34:00;;;;;;;;;58.25;46.25;27.20;86.60;;;;;;5077819;28;8798;-66
2021/12/22 05:36:27;;;;;;;;;63.75;47.25;27.20;87.70;;;;;;5077328;28;8757;-66
2021/12/22 05:38:54;;;;;;;;;63.50;47.50;27.10;86.90;;;;;;5080712;28;8752;-66
2021/12/22 05:41:21;;;;;;;;;63.25;49.00;27.20;85.70;;;;;;5079182;28;8745;-67
2021/12/22 05:43:47;;;;;;;;;57.25;45.75;27.30;85.70;;;;;;5080862;28;8780;-66
2021/12/22 05:46:15;;;;;;;;;53.25;44.00;27.40;85.20;;;;;;5079981;28;8823;-66
2021/12/22 05:48:41;;;;;;;;;58.75;45.00;27.40;83.00;;;;;;5042566;28;8915;-66
2021/12/22 05:51:08;;;;;;;;;56.75;43.75;27.40;82.50;;;;;;5060810;28;8824;-66
2021/12/22 05:53:35;;;;;;;;;57.00;44.50;27.60;79.80;;;;;;5058943;28;8792;-66
2021/12/22 05:56:01;;;;;;;;;58.25;46.25;27.70;79.50;;;;;;5060795;28;8811;-65
2021/12/22 05:58:28;;;;;;;;;57.00;44.75;27.40;80.00;;;;;;5060128;28;9289;-66
2021/12/22 06:00:55;;;;;;;;;54.50;44.50;27.30;81.50;;;;;;5054523;28;8765;-66
2021/12/22 06:03:22;;;;;;;;;54.50;44.75;27.40;82.10;;;;;;5040341;28;8788;-66
2021/12/22 06:05:49;;;;;;;;;56.50;43.00;27.50;81.10;;;;;;5040224;28;9445;-66
2021/12/22 06:08:15;;;;;;;;;55.00;45.50;27.70;80.60;;;;;;5040308;28;8798;-65
2021/12/22 06:10:42;;;;;;;;;60.00;46.50;27.70;81.00;;;;;;5040379;28;8741;-66
2021/12/22 06:13:10;;;;;;;;;57.25;44.75;27.70;80.40;;;;;;5041072;28;9474;-66
2021/12/22 06:15:37;;;;;;;;;51.25;41.00;27.70;81.00;;;;;;5042715;28;8887;-66
2021/12/22 06:18:04;;;;;;;;;49.25;41.00;27.70;79.10;;;;;;5059313;28;8943;-66
2021/12/22 06:20:32;;;;;;;;;50.75;40.75;27.80;80.40;;;;;;5058276;28;8773;-66
2021/12/22 06:22:58;;;;;;;;;52.50;41.25;27.90;80.70;;;;;;5060121;28;8750;-66
2021/12/22 06:25:25;;;;;;;;;55.00;42.25;28.00;79.90;;;;;;5059620;28;9466;-67
2021/12/22 06:27:52;;;;;;;;;52.75;42.50;28.10;78.90;;;;;;5059459;28;8742;-66
2021/12/22 06:30:20;;;;;;;;;46.00;35.75;28.10;77.80;;;;;;5059765;28;8764;-65
2021/12/22 06:32:50;;;;;;;;;52.25;40.50;28.00;79.70;;;;;;5059761;28;8852;-65
2021/12/22 06:35:21;;;;;;;;;52.25;42.50;27.50;80.40;;;;;;5059668;28;8843;-66
2021/12/22 06:38:16;;;;;;;;;53.00;43.00;27.60;79.30;;;;;;5017060;27;2425686;-65
2021/12/22 06:40:43;;;;;;;;;52.75;42.25;27.70;80.40;;;;;;5093812;28;8818;-65
2021/12/22 06:43:10;;;;;;;;;51.50;41.50;27.90;80.60;;;;;;5094587;28;8758;-65
2021/12/22 06:45:36;;;;;;;;;43.75;38.25;28.00;78.80;;;;;;5093865;28;8768;-65
2021/12/22 06:48:03;;;;;;;;;50.25;42.75;28.10;79.20;;;;;;5076627;28;9393;-65
2021/12/22 06:50:30;;;;;;;;;54.25;42.25;28.20;79.20;;;;;;5094351;28;8778;-65
2021/12/22 06:52:57;;;;;;;;;46.00;39.00;28.00;79.00;;;;;;5094511;28;8741;-65
2021/12/22 06:55:25;;;;;;;;;52.50;41.75;28.20;77.50;;;;;;5076402;28;8729;-66
2021/12/22 06:57:52;;;;;;;;;48.00;39.50;28.30;78.50;;;;;;5110118;28;8735;-66
2021/12/22 07:00:18;;;;;;;;;45.50;36.00;27.80;79.30;;;;;;5096196;28;8728;-66
2021/12/22 07:02:45;;;;;;;;;48.75;39.50;27.90;78.20;;;;;;5114528;28;8739;-66
2021/12/22 07:10:45;;;;;;;;;73.25;51.75;27.50;77.80;;;;;;4966851;27;2213368;-66
2021/12/22 07:13:14;;;;;;;;;49.00;39.75;27.10;84.90;;;;;;5033664;28;8788;-66
